sensor_id;sensor_type;location;lat;lon;timestamp;pressure;altitude;pressure_sealevel;temperature;humidity
59055;BME280;44845;51.444;7.460;2023-04-19T00:00:46;100786.88;;;9.51;75.08
59055;BME280;44845;51.444;7.460;2023-04-19T00:03:11;100782.44;;;9.44;75.66
59055;BME280;44845;51.444;7.460;2023-04-19T00:05:38;100785.88;;;9.38;76.37
59055;BME280;44845;51.444;7.460;2023-04-19T00:08:04;100785.88;;;9.40;76.46
59055;BME280;44845;51.444;7.460;2023-04-19T00:10:30;100781.63;;;9.50;76.24
59055;BME280;44845;51.444;7.460;2023-04-19T00:12:55;100780.75;;;9.46;76.63
59055;BME280;44845;51.444;7.460;2023-04-19T00:15:20;100774.56;;;9.44;76.72
59055;BME280;44845;51.444;7.460;2023-04-19T00:17:46;100777.06;;;9.31;77.36
59055;BME280;44845;51.444;7.460;2023-04-19T00:20:11;100780.50;;;9.27;77.78
59055;BME280;44845;51.444;7.460;2023-04-19T00:22:37;100780.50;;;9.27;77.79
59055;BME280;44845;51.444;7.460;2023-04-19T00:25:03;100774.38;;;9.25;77.74
59055;BME280;44845;51.444;7.460;2023-04-19T00:27:28;100780.44;;;9.21;77.91
59055;BME280;44845;51.444;7.460;2023-04-19T00:29:57;100775.38;;;9.37;77.39
59055;BME280;44845;51.444;7.460;2023-04-19T00:32:23;100773.63;;;9.37;77.17
59055;BME280;44845;51.444;7.460;2023-04-19T00:34:48;100775.34;;;9.33;77.20
59055;BME280;44845;51.444;7.460;2023-04-19T00:37:14;100769.22;;;9.33;77.43
59055;BME280;44845;51.444;7.460;2023-04-19T00:39:39;100764.88;;;9.37;77.18
59055;BME280;44845;51.444;7.460;2023-04-19T00:42:04;100766.66;;;9.38;76.90
59055;BME280;44845;51.444;7.460;2023-04-19T00:44:30;100765.72;;;9.34;77.05
59055;BME280;44845;51.444;7.460;2023-04-19T00:46:56;100762.22;;;9.30;77.18
59055;BME280;44845;51.444;7.460;2023-04-19T00:49:22;100770.16;;;9.40;77.00
59055;BME280;44845;51.444;7.460;2023-04-19T00:51:49;100768.59;;;9.53;76.49
59055;BME280;44845;51.444;7.460;2023-04-19T00:54:15;100765.97;;;9.53;76.23
59055;BME280;44845;51.444;7.460;2023-04-19T00:56:40;100766.72;;;9.44;76.46
59055;BME280;44845;51.444;7.460;2023-04-19T00:59:07;100768.50;;;9.45;76.49
59055;BME280;44845;51.444;7.460;2023-04-19T01:01:33;100767.66;;;9.48;76.39
59055;BME280;44845;51.444;7.460;2023-04-19T01:04:00;100766.81;;;9.49;76.23
59055;BME280;44845;51.444;7.460;2023-04-19T01:06:26;100768.59;;;9.54;76.24
59055;BME280;44845;51.444;7.460;2023-04-19T01:08:52;100764.38;;;9.67;75.73
59055;BME280;44845;51.444;7.460;2023-04-19T01:11:18;100760.13;;;9.77;75.21
59055;BME280;44845;51.444;7.460;2023-04-19T01:13:43;100762.66;;;9.71;75.30
59055;BME280;44845;51.444;7.460;2023-04-19T01:16:08;100756.50;;;9.66;75.55
59055;BME280;44845;51.444;7.460;2023-04-19T01:18:34;100757.41;;;9.71;75.35
59055;BME280;44845;51.444;7.460;2023-04-19T01:21:02;100757.34;;;9.63;75.34
59055;BME280;44845;51.444;7.460;2023-04-19T01:23:28;100751.25;;;9.64;75.32
59055;BME280;44845;51.444;7.460;2023-04-19T01:25:53;100755.59;;;9.64;75.40
59055;BME280;44845;51.444;7.460;2023-04-19T01:28:18;100753.06;;;9.70;75.19
59055;BME280;44845;51.444;7.460;2023-04-19T01:30:44;100747.81;;;9.70;74.86
59055;BME280;44845;51.444;7.460;2023-04-19T01:33:09;100748.56;;;9.60;75.13
59055;BME280;44845;51.444;7.460;2023-04-19T01:35:35;100754.66;;;9.55;75.18
59055;BME280;44845;51.444;7.460;2023-04-19T01:38:00;100754.69;;;9.62;75.37
59055;BME280;44845;51.444;7.460;2023-04-19T01:40:26;100752.97;;;9.61;75.13
59055;BME280;44845;51.444;7.460;2023-04-19T01:42:52;100746.03;;;9.67;75.13
59055;BME280;44845;51.444;7.460;2023-04-19T01:45:17;100750.47;;;9.75;74.97
59055;BME280;44845;51.444;7.460;2023-04-19T01:47:42;100744.22;;;9.62;74.84
59055;BME280;44845;51.444;7.460;2023-04-19T01:50:08;100749.41;;;9.58;74.91
59055;BME280;44845;51.444;7.460;2023-04-19T01:52:33;100745.16;;;9.67;74.91
59055;BME280;44845;51.444;7.460;2023-04-19T01:54:59;100741.53;;;9.54;74.34
59055;BME280;44845;51.444;7.460;2023-04-19T01:57:24;100747.69;;;9.59;74.10
59055;BME280;44845;51.444;7.460;2023-04-19T01:59:50;100746.75;;;9.54;74.46
59055;BME280;44845;51.444;7.460;2023-04-19T02:02:17;100755.59;;;9.64;74.26
59055;BME280;44845;51.444;7.460;2023-04-19T02:04:42;100748.72;;;9.74;73.79
59055;BME280;44845;51.444;7.460;2023-04-19T02:07:08;100749.41;;;9.58;73.81
59055;BME280;44845;51.444;7.460;2023-04-19T02:09:34;100749.31;;;9.48;73.76
59055;BME280;44845;51.444;7.460;2023-04-19T02:12:00;100749.38;;;9.52;73.81
59055;BME280;44845;51.444;7.460;2023-04-19T02:14:25;100738.94;;;9.58;73.05
59055;BME280;44845;51.444;7.460;2023-04-19T02:16:51;100745.13;;;9.64;72.67
59055;BME280;44845;51.444;7.460;2023-04-19T02:19:16;100751.97;;;9.51;72.12
59055;BME280;44845;51.444;7.460;2023-04-19T02:21:42;100748.44;;;9.47;72.17
59055;BME280;44845;51.444;7.460;2023-04-19T02:24:07;100744.09;;;9.46;72.23
59055;BME280;44845;51.444;7.460;2023-04-19T02:26:32;100746.69;;;9.46;71.90
59055;BME280;44845;51.444;7.460;2023-04-19T02:28:58;100745.91;;;9.55;70.85
59055;BME280;44845;51.444;7.460;2023-04-19T02:31:24;100749.41;;;9.58;71.03
59055;BME280;44845;51.444;7.460;2023-04-19T02:33:49;100742.50;;;9.61;70.25
59055;BME280;44845;51.444;7.460;2023-04-19T02:36:15;100747.53;;;9.45;70.46
59055;BME280;44845;51.444;7.460;2023-04-19T02:38:40;100743.06;;;9.33;70.06
59055;BME280;44845;51.444;7.460;2023-04-19T02:41:05;100753.56;;;9.36;70.58
59055;BME280;44845;51.444;7.460;2023-04-19T02:43:31;100743.00;;;9.28;70.55
59055;BME280;44845;51.444;7.460;2023-04-19T02:45:56;100744.00;;;9.40;70.31
59055;BME280;44845;51.444;7.460;2023-04-19T02:48:22;100741.31;;;9.33;69.91
59055;BME280;44845;51.444;7.460;2023-04-19T02:50:47;100738.69;;;9.33;69.88
59055;BME280;44845;51.444;7.460;2023-04-19T02:53:12;100733.50;;;9.38;69.54
59055;BME280;44845;51.444;7.460;2023-04-19T02:55:38;100730.84;;;9.35;69.31
59055;BME280;44845;51.444;7.460;2023-04-19T02:58:03;100735.19;;;9.31;69.20
59055;BME280;44845;51.444;7.460;2023-04-19T03:00:28;100740.44;;;9.33;69.21
59055;BME280;44845;51.444;7.460;2023-04-19T03:02:54;100734.28;;;9.29;69.33
59055;BME280;44845;51.444;7.460;2023-04-19T03:05:20;100735.16;;;9.28;69.43
59055;BME280;44845;51.444;7.460;2023-04-19T03:07:46;100734.31;;;9.31;69.40
59055;BME280;44845;51.444;7.460;2023-04-19T03:10:11;100737.03;;;9.39;69.08
59055;BME280;44845;51.444;7.460;2023-04-19T03:12:36;100733.41;;;9.30;68.67
59055;BME280;44845;51.444;7.460;2023-04-19T03:15:02;100729.81;;;9.20;68.14
59055;BME280;44845;51.444;7.460;2023-04-19T03:17:27;100729.06;;;9.31;68.18
59055;BME280;44845;51.444;7.460;2023-04-19T03:19:53;100728.13;;;9.27;68.48
59055;BME280;44845;51.444;7.460;2023-04-19T03:22:18;100733.41;;;9.30;67.94
59055;BME280;44845;51.444;7.460;2023-04-19T03:24:43;100732.59;;;9.34;68.57
59055;BME280;44845;51.444;7.460;2023-04-19T03:27:09;100726.59;;;9.45;67.40
59055;BME280;44845;51.444;7.460;2023-04-19T03:29:34;100721.13;;;9.23;67.47
59055;BME280;44845;51.444;7.460;2023-04-19T03:31:59;100719.34;;;9.19;67.96
59055;BME280;44845;51.444;7.460;2023-04-19T03:34:25;100720.03;;;9.05;67.77
59055;BME280;44845;51.444;7.460;2023-04-19T03:36:50;100719.09;;;8.98;67.79
59055;BME280;44845;51.444;7.460;2023-04-19T03:39:15;100717.34;;;8.99;68.03
59055;BME280;44845;51.444;7.460;2023-04-19T03:41:41;100722.69;;;9.07;67.69
59055;BME280;44845;51.444;7.460;2023-04-19T03:44:06;100719.13;;;9.03;67.25
59055;BME280;44845;51.444;7.460;2023-04-19T03:46:31;100712.22;;;9.08;67.16
59055;BME280;44845;51.444;7.460;2023-04-19T03:48:57;100713.06;;;9.07;67.07
59055;BME280;44845;51.444;7.460;2023-04-19T03:51:23;100711.13;;;8.89;66.47
59055;BME280;44845;51.444;7.460;2023-04-19T03:53:48;100713.69;;;8.87;67.09
59055;BME280;44845;51.444;7.460;2023-04-19T03:56:13;100711.78;;;8.74;67.12
59055;BME280;44845;51.444;7.460;2023-04-19T03:58:39;100708.34;;;8.75;67.27
59055;BME280;44845;51.444;7.460;2023-04-19T04:01:04;100711.84;;;8.77;66.64
59055;BME280;44845;51.444;7.460;2023-04-19T04:03:32;100708.22;;;8.69;66.54
59055;BME280;44845;51.444;7.460;2023-04-19T04:05:58;100713.56;;;8.75;66.62
59055;BME280;44845;51.444;7.460;2023-04-19T04:08:23;100714.41;;;8.72;64.74
59055;BME280;44845;51.444;7.460;2023-04-19T04:10:48;100719.72;;;8.80;65.33
59055;BME280;44845;51.444;7.460;2023-04-19T04:13:14;100704.97;;;8.85;65.43
59055;BME280;44845;51.444;7.460;2023-04-19T04:15:39;100713.75;;;8.90;65.04
59055;BME280;44845;51.444;7.460;2023-04-19T04:18:04;100722.16;;;8.66;65.17
59055;BME280;44845;51.444;7.460;2023-04-19T04:20:30;100716.03;;;8.65;65.09
59055;BME280;44845;51.444;7.460;2023-04-19T04:22:55;100726.47;;;8.62;64.35
59055;BME280;44845;51.444;7.460;2023-04-19T04:25:21;100729.09;;;8.62;64.37
59055;BME280;44845;51.444;7.460;2023-04-19T04:27:49;100722.25;;;8.74;64.13
59055;BME280;44845;51.444;7.460;2023-04-19T04:30:15;100724.75;;;8.66;63.66
59055;BME280;44845;51.444;7.460;2023-04-19T04:32:41;100726.31;;;8.54;63.92
59055;BME280;44845;51.444;7.460;2023-04-19T04:35:08;100726.13;;;8.43;64.12
59055;BME280;44845;51.444;7.460;2023-04-19T04:37:34;100725.34;;;8.48;63.42
59055;BME280;44845;51.444;7.460;2023-04-19T04:40:00;100731.38;;;8.43;63.41
59055;BME280;44845;51.444;7.460;2023-04-19T04:42:25;100735.66;;;8.38;63.89
59055;BME280;44845;51.444;7.460;2023-04-19T04:44:51;100737.28;;;8.31;63.82
59055;BME280;44845;51.444;7.460;2023-04-19T04:47:17;100739.97;;;8.36;63.41
59055;BME280;44845;51.444;7.460;2023-04-19T04:49:42;100736.41;;;8.29;63.46
59055;BME280;44845;51.444;7.460;2023-04-19T04:52:08;100727.94;;;8.46;63.23
59055;BME280;44845;51.444;7.460;2023-04-19T04:54:33;100732.28;;;8.45;63.23
59055;BME280;44845;51.444;7.460;2023-04-19T04:56:59;100730.53;;;8.43;63.16
59055;BME280;44845;51.444;7.460;2023-04-19T04:59:25;100732.00;;;8.27;63.36
59055;BME280;44845;51.444;7.460;2023-04-19T05:01:50;100740.72;;;8.26;63.58
59055;BME280;44845;51.444;7.460;2023-04-19T05:04:16;100742.44;;;8.25;63.67
59055;BME280;44845;51.444;7.460;2023-04-19T05:06:42;100744.25;;;8.31;63.42
59055;BME280;44845;51.444;7.460;2023-04-19T05:09:08;100739.97;;;8.36;62.99
59055;BME280;44845;51.444;7.460;2023-04-19T05:11:34;100742.59;;;8.36;63.33
59055;BME280;44845;51.444;7.460;2023-04-19T05:13:59;100737.28;;;8.30;62.89
59055;BME280;44845;51.444;7.460;2023-04-19T05:16:25;100738.22;;;8.35;62.50
59055;BME280;44845;51.444;7.460;2023-04-19T05:18:51;100736.41;;;8.31;62.59
59055;BME280;44845;51.444;7.460;2023-04-19T05:21:16;100737.34;;;8.36;62.85
59055;BME280;44845;51.444;7.460;2023-04-19T05:23:41;100730.19;;;8.22;62.41
59055;BME280;44845;51.444;7.460;2023-04-19T05:26:07;100735.06;;;8.00;62.41
59055;BME280;44845;51.444;7.460;2023-04-19T05:28:34;100741.28;;;8.07;62.33
59055;BME280;44845;51.444;7.460;2023-04-19T05:31:02;100734.34;;;8.09;62.32
59055;BME280;44845;51.444;7.460;2023-04-19T05:33:27;100741.34;;;8.14;62.38
59055;BME280;44845;51.444;7.460;2023-04-19T05:35:52;100742.44;;;8.27;61.66
59055;BME280;44845;51.444;7.460;2023-04-19T05:38:18;100740.59;;;8.19;61.34
59055;BME280;44845;51.444;7.460;2023-04-19T05:40:43;100743.91;;;8.09;61.71
59055;BME280;44845;51.444;7.460;2023-04-19T05:43:09;100742.22;;;8.11;61.38
59055;BME280;44845;51.444;7.460;2023-04-19T05:45:34;100742.31;;;8.17;61.09
59055;BME280;44845;51.444;7.460;2023-04-19T05:48:00;100738.88;;;8.21;60.55
59055;BME280;44845;51.444;7.460;2023-04-19T05:50:25;100739.75;;;8.22;59.90
59055;BME280;44845;51.444;7.460;2023-04-19T05:52:50;100739.47;;;8.03;59.91
59055;BME280;44845;51.444;7.460;2023-04-19T05:55:16;100735.06;;;8.00;59.64
59055;BME280;44845;51.444;7.460;2023-04-19T05:57:42;100733.56;;;8.15;59.63
59055;BME280;44845;51.444;7.460;2023-04-19T06:00:08;100739.00;;;8.31;59.03
59055;BME280;44845;51.444;7.460;2023-04-19T06:02:36;100733.03;;;8.38;58.97
59055;BME280;44845;51.444;7.460;2023-04-19T06:05:01;100729.78;;;8.53;58.42
59055;BME280;44845;51.444;7.460;2023-04-19T06:07:29;100735.66;;;8.38;59.02
59055;BME280;44845;51.444;7.460;2023-04-19T06:09:54;100742.59;;;8.36;59.21
59055;BME280;44845;51.444;7.460;2023-04-19T06:12:20;100735.38;;;8.19;58.85
59055;BME280;44845;51.444;7.460;2023-04-19T06:14:45;100736.25;;;8.20;58.43
59055;BME280;44845;51.444;7.460;2023-04-19T06:17:14;100737.03;;;8.14;57.63
59055;BME280;44845;51.444;7.460;2023-04-19T06:19:41;100737.69;;;8.02;57.35
59055;BME280;44845;51.444;7.460;2023-04-19T06:22:06;100738.31;;;7.87;56.49
59055;BME280;44845;51.444;7.460;2023-04-19T06:24:32;100740.88;;;7.84;56.67
59055;BME280;44845;51.444;7.460;2023-04-19T06:26:57;100736.50;;;7.83;56.40
59055;BME280;44845;51.444;7.460;2023-04-19T06:29:23;100734.94;;;7.94;55.63
59055;BME280;44845;51.444;7.460;2023-04-19T06:31:48;100734.72;;;7.82;55.45
59055;BME280;44845;51.444;7.460;2023-04-19T06:34:14;100733.06;;;7.84;55.47
59055;BME280;44845;51.444;7.460;2023-04-19T06:36:40;100725.38;;;7.95;55.49
59055;BME280;44845;51.444;7.460;2023-04-19T06:39:06;100732.66;;;8.13;54.90
59055;BME280;44845;51.444;7.460;2023-04-19T06:41:31;100728.13;;;8.03;54.32
59055;BME280;44845;51.444;7.460;2023-04-19T06:43:56;100736.94;;;8.09;54.01
59055;BME280;44845;51.444;7.460;2023-04-19T06:46:22;100731.50;;;7.95;53.66
59055;BME280;44845;51.444;7.460;2023-04-19T06:48:47;100741.22;;;8.04;54.64
59055;BME280;44845;51.444;7.460;2023-04-19T06:51:12;100746.56;;;8.10;54.01
59055;BME280;44845;51.444;7.460;2023-04-19T06:53:38;100739.31;;;7.94;53.13
59055;BME280;44845;51.444;7.460;2023-04-19T06:56:04;100734.03;;;7.91;53.67
59055;BME280;44845;51.444;7.460;2023-04-19T06:58:29;100736.94;;;8.08;53.99
59055;BME280;44845;51.444;7.460;2023-04-19T07:00:56;100730.19;;;8.22;53.73
59055;BME280;44845;51.444;7.460;2023-04-19T07:03:21;100735.44;;;8.24;52.12
59055;BME280;44845;51.444;7.460;2023-04-19T07:05:47;100740.66;;;8.22;52.30
59055;BME280;44845;51.444;7.460;2023-04-19T07:08:12;100732.75;;;8.21;52.03
59055;BME280;44845;51.444;7.460;2023-04-19T07:10:38;100743.38;;;8.30;51.38
59055;BME280;44845;51.444;7.460;2023-04-19T07:13:03;100737.91;;;8.16;51.36
59055;BME280;44845;51.444;7.460;2023-04-19T07:15:28;100737.78;;;8.07;51.27
59055;BME280;44845;51.444;7.460;2023-04-19T07:17:54;100743.81;;;8.03;51.72
59055;BME280;44845;51.444;7.460;2023-04-19T07:20:19;100740.13;;;7.91;51.50
59055;BME280;44845;51.444;7.460;2023-04-19T07:22:45;100743.66;;;7.93;51.01
59055;BME280;44845;51.444;7.460;2023-04-19T07:25:11;100740.81;;;7.79;51.00
59055;BME280;44845;51.444;7.460;2023-04-19T07:27:36;100729.63;;;7.88;51.16
59055;BME280;44845;51.444;7.460;2023-04-19T07:30:02;100735.00;;;7.97;50.56
59055;BME280;44845;51.444;7.460;2023-04-19T07:32:27;100741.13;;;7.98;50.21
59055;BME280;44845;51.444;7.460;2023-04-19T07:34:53;100735.75;;;7.88;49.83
59055;BME280;44845;51.444;7.460;2023-04-19T07:37:18;100735.13;;;8.04;49.93
59055;BME280;44845;51.444;7.460;2023-04-19T07:39:44;100733.34;;;8.03;49.93
59055;BME280;44845;51.444;7.460;2023-04-19T07:42:09;100724.69;;;8.05;49.70
59055;BME280;44845;51.444;7.460;2023-04-19T07:44:35;100723.72;;;8.00;49.43
59055;BME280;44845;51.444;7.460;2023-04-19T07:47:00;100730.72;;;8.01;50.27
59055;BME280;44845;51.444;7.460;2023-04-19T07:49:27;100729.78;;;7.97;49.51
59055;BME280;44845;51.444;7.460;2023-04-19T07:51:58;100735.06;;;8.00;50.42
59055;BME280;44845;51.444;7.460;2023-04-19T07:54:23;100728.97;;;8.00;49.57
59055;BME280;44845;51.444;7.460;2023-04-19T07:56:48;100738.66;;;8.09;50.26
59055;BME280;44845;51.444;7.460;2023-04-19T07:59:14;100731.84;;;8.17;50.12
59055;BME280;44845;51.444;7.460;2023-04-19T08:01:40;100744.09;;;8.21;49.52
59055;BME280;44845;51.444;7.460;2023-04-19T08:04:05;100733.63;;;8.18;49.62
59055;BME280;44845;51.444;7.460;2023-04-19T08:06:31;100731.31;;;8.39;49.69
59055;BME280;44845;51.444;7.460;2023-04-19T08:08:57;100742.84;;;8.52;50.25
59055;BME280;44845;51.444;7.460;2023-04-19T08:11:22;100724.63;;;8.58;49.37
59055;BME280;44845;51.444;7.460;2023-04-19T08:13:49;100735.41;;;8.22;48.94
59055;BME280;44845;51.444;7.460;2023-04-19T08:16:14;100741.53;;;8.23;49.48
59055;BME280;44845;51.444;7.460;2023-04-19T08:18:40;100747.59;;;8.20;49.27
59055;BME280;44845;51.444;7.460;2023-04-19T08:21:05;100747.47;;;8.14;49.44
59055;BME280;44845;51.444;7.460;2023-04-19T08:23:31;100739.41;;;8.02;50.32
59055;BME280;44845;51.444;7.460;2023-04-19T08:25:56;100747.31;;;8.05;50.46
59055;BME280;44845;51.444;7.460;2023-04-19T08:28:22;100739.50;;;8.06;50.40
59055;BME280;44845;51.444;7.460;2023-04-19T08:30:47;100729.31;;;8.22;50.49
59055;BME280;44845;51.444;7.460;2023-04-19T08:33:13;100736.13;;;8.12;49.99
59055;BME280;44845;51.444;7.460;2023-04-19T08:35:38;100740.59;;;8.19;50.46
59055;BME280;44845;51.444;7.460;2023-04-19T08:38:07;100731.84;;;8.17;50.43
59055;BME280;44845;51.444;7.460;2023-04-19T08:40:33;100738.34;;;8.43;50.96
59055;BME280;44845;51.444;7.460;2023-04-19T08:42:58;100736.78;;;8.56;49.61
59055;BME280;44845;51.444;7.460;2023-04-19T08:45:27;100728.13;;;9.24;66.78
59055;BME280;44845;51.444;7.460;2023-04-19T08:47:53;100725.97;;;9.69;55.19
59055;BME280;44845;51.444;7.460;2023-04-19T08:50:20;100727.78;;;9.77;47.71
59055;BME280;44845;51.444;7.460;2023-04-19T08:52:46;100729.97;;;9.31;47.58
59055;BME280;44845;51.444;7.460;2023-04-19T08:55:11;100725.41;;;9.16;48.14
59055;BME280;44845;51.444;7.460;2023-04-19T08:57:37;100720.91;;;9.06;47.96
59055;BME280;44845;51.444;7.460;2023-04-19T09:00:03;100725.88;;;8.85;46.56
59055;BME280;44845;51.444;7.460;2023-04-19T09:02:47;100725.69;;;8.70;46.33
59055;BME280;44845;51.444;7.460;2023-04-19T09:05:13;100730.09;;;8.72;46.72
59055;BME280;44845;51.444;7.460;2023-04-19T09:07:39;100731.03;;;8.79;47.44
59055;BME280;44845;51.444;7.460;2023-04-19T09:10:09;100713.84;;;9.00;46.79
59055;BME280;44845;51.444;7.460;2023-04-19T09:12:35;100718.94;;;8.87;46.11
59055;BME280;44845;51.444;7.460;2023-04-19T09:15:03;100715.28;;;8.74;45.38
59055;BME280;44845;51.444;7.460;2023-04-19T09:17:32;100717.81;;;8.68;45.83
59055;BME280;44845;51.444;7.460;2023-04-19T09:19:57;100713.59;;;8.78;46.38
59055;BME280;44845;51.444;7.460;2023-04-19T09:22:23;100710.44;;;9.04;46.79
59055;BME280;44845;51.444;7.460;2023-04-19T09:24:49;100721.91;;;9.14;45.19
59055;BME280;44845;51.444;7.460;2023-04-19T09:27:34;100700.81;;;9.01;44.03
59055;BME280;44845;51.444;7.460;2023-04-19T09:30:02;100713.41;;;8.62;44.14
59055;BME280;44845;51.444;7.460;2023-04-19T09:32:28;100703.09;;;8.75;43.62
59055;BME280;44845;51.444;7.460;2023-04-19T09:35:08;100700.59;;;8.84;44.63
59055;BME280;44845;51.444;7.460;2023-04-19T09:37:34;100701.59;;;8.94;44.33
59055;BME280;44845;51.444;7.460;2023-04-19T09:40:00;100706.78;;;8.93;42.52
59055;BME280;44845;51.444;7.460;2023-04-19T09:42:45;100688.59;;;9.00;42.11
59055;BME280;44845;51.444;7.460;2023-04-19T09:45:11;100691.19;;;8.99;44.23
59055;BME280;44845;51.444;7.460;2023-04-19T09:47:36;100698.00;;;8.84;45.24
59055;BME280;44845;51.444;7.460;2023-04-19T09:52:31;100689.25;;;8.85;46.18
59055;BME280;44845;51.444;7.460;2023-04-19T09:54:59;100685.72;;;8.80;45.39
59055;BME280;44845;51.444;7.460;2023-04-19T09:57:25;100673.78;;;9.01;45.57
59055;BME280;44845;51.444;7.460;2023-04-19T09:59:50;100669.47;;;9.08;45.38
59055;BME280;44845;51.444;7.460;2023-04-19T10:02:16;100673.03;;;9.13;44.36
59055;BME280;44845;51.444;7.460;2023-04-19T10:04:42;100667.69;;;9.05;44.32
59055;BME280;44845;51.444;7.460;2023-04-19T10:07:08;100666.88;;;9.09;44.23
59055;BME280;44845;51.444;7.460;2023-04-19T10:09:34;100662.69;;;9.27;43.58
59055;BME280;44845;51.444;7.460;2023-04-19T10:12:01;100663.59;;;9.29;42.82
59055;BME280;44845;51.444;7.460;2023-04-19T10:14:29;100663.72;;;9.40;43.20
59055;BME280;44845;51.444;7.460;2023-04-19T10:16:57;100662.00;;;9.44;43.11
59055;BME280;44845;51.444;7.460;2023-04-19T10:19:23;100660.28;;;9.46;43.42
59055;BME280;44845;51.444;7.460;2023-04-19T10:21:49;100661.22;;;9.54;44.33
59055;BME280;44845;51.444;7.460;2023-04-19T10:24:15;100655.25;;;9.68;43.30
59055;BME280;44845;51.444;7.460;2023-04-19T10:29:54;100658.53;;;9.45;42.32
59055;BME280;44845;51.444;7.460;2023-04-19T10:32:20;100656.78;;;9.45;40.82
59055;BME280;44845;51.444;7.460;2023-04-19T10:34:45;100656.63;;;9.28;40.83
59055;BME280;44845;51.444;7.460;2023-04-19T10:37:14;100666.34;;;9.39;41.36
59055;BME280;44845;51.444;7.460;2023-04-19T10:39:42;100656.66;;;9.31;40.88
59055;BME280;44845;51.444;7.460;2023-04-19T10:42:07;100654.56;;;9.00;40.95
59055;BME280;44845;51.444;7.460;2023-04-19T10:44:33;100650.22;;;8.99;41.92
59055;BME280;44845;51.444;7.460;2023-04-19T10:46:58;100639.06;;;9.18;42.57
59055;BME280;44845;51.444;7.460;2023-04-19T10:49:26;100646.09;;;9.25;42.31
59055;BME280;44845;51.444;7.460;2023-04-19T10:51:52;100642.72;;;9.35;42.79
59055;BME280;44845;51.444;7.460;2023-04-19T10:54:37;100639.28;;;9.40;42.48
59055;BME280;44845;51.444;7.460;2023-04-19T10:57:09;100634.13;;;9.46;41.74
59055;BME280;44845;51.444;7.460;2023-04-19T10:59:38;100628.88;;;9.46;42.44
59055;BME280;44845;51.444;7.460;2023-04-19T11:02:26;100625.44;;;9.53;42.35
59055;BME280;44845;51.444;7.460;2023-04-19T11:07:18;100609.00;;;9.70;41.79
59055;BME280;44845;51.444;7.460;2023-04-19T11:09:46;100606.41;;;9.73;40.68
59055;BME280;44845;51.444;7.460;2023-04-19T11:12:14;100616.91;;;9.79;41.02
59055;BME280;44845;51.444;7.460;2023-04-19T11:14:41;100599.50;;;9.85;41.36
59055;BME280;44845;51.444;7.460;2023-04-19T11:17:28;100603.97;;;10.01;39.20
59055;BME280;44845;51.444;7.460;2023-04-19T11:20:03;100597.88;;;10.06;38.88
59055;BME280;44845;51.444;7.460;2023-04-19T11:22:38;100594.47;;;10.19;38.19
59055;BME280;44845;51.444;7.460;2023-04-19T11:25:11;100606.59;;;10.01;38.46
59055;BME280;44845;51.444;7.460;2023-04-19T11:27:38;100586.41;;;9.91;38.78
59055;BME280;44845;51.444;7.460;2023-04-19T11:30:08;100586.47;;;9.99;39.35
59055;BME280;44845;51.444;7.460;2023-04-19T11:32:35;100584.84;;;10.17;38.82
59055;BME280;44845;51.444;7.460;2023-04-19T11:35:07;100584.06;;;10.38;38.56
59055;BME280;44845;51.444;7.460;2023-04-19T11:37:36;100582.34;;;10.37;38.15
59055;BME280;44845;51.444;7.460;2023-04-19T11:40:04;100579.72;;;10.42;38.45
59055;BME280;44845;51.444;7.460;2023-04-19T11:42:30;100563.09;;;10.32;39.34
59055;BME280;44845;51.444;7.460;2023-04-19T11:44:56;100570.09;;;10.36;39.60
59055;BME280;44845;51.444;7.460;2023-04-19T11:47:23;100557.81;;;10.35;39.42
59055;BME280;44845;51.444;7.460;2023-04-19T11:49:48;100559.59;;;10.36;40.30
59055;BME280;44845;51.444;7.460;2023-04-19T11:52:22;100563.09;;;10.38;40.33
59055;BME280;44845;51.444;7.460;2023-04-19T11:54:49;100557.03;;;10.50;39.04
59055;BME280;44845;51.444;7.460;2023-04-19T11:57:26;100550.88;;;10.43;39.39
59055;BME280;44845;51.444;7.460;2023-04-19T12:00:06;100534.28;;;10.44;39.46
59055;BME280;44845;51.444;7.460;2023-04-19T12:02:39;100538.72;;;10.55;38.12
59055;BME280;44845;51.444;7.460;2023-04-19T12:05:09;100514.25;;;10.59;38.03
59055;BME280;44845;51.444;7.460;2023-04-19T12:07:35;100555.34;;;10.63;36.22
59055;BME280;44845;51.444;7.460;2023-04-19T12:10:08;100527.38;;;10.59;35.24
59055;BME280;44845;51.444;7.460;2023-04-19T12:12:34;100528.25;;;10.67;35.94
59055;BME280;44845;51.444;7.460;2023-04-19T12:15:00;100515.16;;;10.69;36.10
59055;BME280;44845;51.444;7.460;2023-04-19T12:17:25;100510.78;;;10.77;37.09
59055;BME280;44845;51.444;7.460;2023-04-19T12:19:51;100528.28;;;10.70;37.69
59055;BME280;44845;51.444;7.460;2023-04-19T12:22:18;100529.16;;;10.71;37.16
59055;BME280;44845;51.444;7.460;2023-04-19T12:24:44;100514.25;;;10.65;37.94
59055;BME280;44845;51.444;7.460;2023-04-19T12:27:10;100519.53;;;10.75;37.61
59055;BME280;44845;51.444;7.460;2023-04-19T12:29:35;100515.16;;;10.80;37.81
59055;BME280;44845;51.444;7.460;2023-04-19T12:32:01;100508.19;;;10.84;37.92
59055;BME280;44845;51.444;7.460;2023-04-19T12:34:27;100509.06;;;10.97;37.82
59055;BME280;44845;51.444;7.460;2023-04-19T12:36:53;100503.81;;;10.97;38.17
59055;BME280;44845;51.444;7.460;2023-04-19T12:39:18;100496.81;;;11.11;36.45
59055;BME280;44845;51.444;7.460;2023-04-19T12:41:43;100496.84;;;11.13;36.61
59055;BME280;44845;51.444;7.460;2023-04-19T12:44:09;100502.06;;;11.24;37.32
59055;BME280;44845;51.444;7.460;2023-04-19T12:46:35;100491.59;;;11.18;35.23
59055;BME280;44845;51.444;7.460;2023-04-19T12:49:00;100510.84;;;11.20;35.73
59055;BME280;44845;51.444;7.460;2023-04-19T12:51:26;100495.09;;;11.23;34.71
59055;BME280;44845;51.444;7.460;2023-04-19T12:53:53;100499.47;;;11.24;35.21
59055;BME280;44845;51.444;7.460;2023-04-19T12:56:18;100490.72;;;11.20;34.09
59055;BME280;44845;51.444;7.460;2023-04-19T12:58:43;100490.69;;;11.09;34.73
59055;BME280;44845;51.444;7.460;2023-04-19T13:01:09;100489.81;;;11.17;34.30
59055;BME280;44845;51.444;7.460;2023-04-19T13:03:35;100488.97;;;11.14;34.50